KEUG/EUG METAR and TAF weather

Enter ICAO airport designator
Station Type Date Time Source
KEUG METAR 2020/01/21 14:54 UTC NOAA

KEUG 211454Z 17008KT 10SM BKN032 OVC043 06/04 A2984 RMK AO2 SLP106 60004 T00610039 53012


Station Type Date Time Source
KEUG Decoded METAR 2020/01/21 14:54 UTC NOAA

MAHLON SWEET FIELD, OR, United States (KEUG) 44-08N 123-13W 114M
Jan 21, 2020 - 09:54 AM EST / 2020.01.21 1454 UTC
Wind: from the S (170 degrees) at 9 MPH (8 KT):0
Visibility: 10 mile(s):0
Sky conditions: overcast
Temperature: 43.0 F (6.1 C)
Dew Point: 39.0 F (3.9 C)
Relative Humidity: 85%
Pressure (altimeter): 29.84 in. Hg (1010 hPa)
Pressure tendency: 0.04 inches (1.2 hPa) higher than three hours ago
ob: KEUG 211454Z 17008KT 10SM BKN032 OVC043 06/04 A2984 RMK AO2 SLP106 60004 T00610039 53012
cycle: 15

Station Type Date Time Source
KEUG TAF 2020/01/21 14:18 UTC NOAA

TAF
AMD KEUG 211416Z 2114/2212 20015KT P6SM SCT010 BKN035
TEMPO 2114/2117 5SM BR SCT010 BKN025 OVC050
FM211700 20012KT P6SM -SHRA BKN025 BKN035
FM212000 20015G22KT P6SM SHRA SCT015 BKN025
FM220100 21011KT P6SM -SHRA SCT021 BKN035
FM220900 19008KT 6SM -RA BR BKN021 OVC040

Example: see airport list